sensor_id;sensor_type;location;lat;lon;timestamp;P1;durP1;ratioP1;P2;durP2;ratioP2
19207;SDS011;9737;59.466;18.036;2023-03-20T00:00:27;6.32;;;3.80;;
19207;SDS011;9737;59.466;18.036;2023-03-20T00:02:59;5.53;;;3.78;;
19207;SDS011;9737;59.466;18.036;2023-03-20T00:05:28;8.30;;;4.20;;
19207;SDS011;9737;59.466;18.036;2023-03-20T00:07:58;6.43;;;3.78;;
19207;SDS011;9737;59.466;18.036;2023-03-20T00:10:29;5.35;;;3.30;;
19207;SDS011;9737;59.466;18.036;2023-03-20T00:13:01;6.93;;;3.80;;
19207;SDS011;9737;59.466;18.036;2023-03-20T00:15:30;6.72;;;4.05;;
19207;SDS011;9737;59.466;18.036;2023-03-20T00:18:02;8.30;;;4.10;;
19207;SDS011;9737;59.466;18.036;2023-03-20T00:20:31;7.28;;;3.70;;
19207;SDS011;9737;59.466;18.036;2023-03-20T00:23:01;11.88;;;4.35;;
19207;SDS011;9737;59.466;18.036;2023-03-20T00:25:29;7.88;;;4.38;;
19207;SDS011;9737;59.466;18.036;2023-03-20T00:27:57;7.57;;;4.18;;
19207;SDS011;9737;59.466;18.036;2023-03-20T00:30:26;8.95;;;4.65;;
19207;SDS011;9737;59.466;18.036;2023-03-20T00:32:57;10.88;;;4.85;;
19207;SDS011;9737;59.466;18.036;2023-03-20T00:35:26;10.80;;;4.75;;
19207;SDS011;9737;59.466;18.036;2023-03-20T00:37:56;9.05;;;4.35;;
19207;SDS011;9737;59.466;18.036;2023-03-20T00:40:28;8.35;;;4.57;;
19207;SDS011;9737;59.466;18.036;2023-03-20T00:42:58;8.60;;;4.47;;
19207;SDS011;9737;59.466;18.036;2023-03-20T00:45:27;11.23;;;5.38;;
19207;SDS011;9737;59.466;18.036;2023-03-20T00:47:57;12.20;;;5.45;;
19207;SDS011;9737;59.466;18.036;2023-03-20T00:50:26;11.18;;;5.32;;
19207;SDS011;9737;59.466;18.036;2023-03-20T00:52:56;11.80;;;5.32;;
19207;SDS011;9737;59.466;18.036;2023-03-20T00:55:27;10.38;;;5.20;;
19207;SDS011;9737;59.466;18.036;2023-03-20T00:57:56;10.13;;;5.38;;
19207;SDS011;9737;59.466;18.036;2023-03-20T01:00:30;13.75;;;5.70;;
19207;SDS011;9737;59.466;18.036;2023-03-20T01:03:08;11.50;;;5.72;;
19207;SDS011;9737;59.466;18.036;2023-03-20T01:05:38;11.30;;;5.80;;
19207;SDS011;9737;59.466;18.036;2023-03-20T01:08:13;12.85;;;6.20;;
19207;SDS011;9737;59.466;18.036;2023-03-20T01:10:43;12.60;;;5.88;;
19207;SDS011;9737;59.466;18.036;2023-03-20T01:13:15;10.23;;;5.50;;
19207;SDS011;9737;59.466;18.036;2023-03-20T01:15:46;12.77;;;6.05;;
19207;SDS011;9737;59.466;18.036;2023-03-20T01:18:15;12.68;;;6.55;;
19207;SDS011;9737;59.466;18.036;2023-03-20T01:20:44;12.63;;;5.85;;
19207;SDS011;9737;59.466;18.036;2023-03-20T01:23:12;12.45;;;6.40;;
19207;SDS011;9737;59.466;18.036;2023-03-20T01:25:40;13.18;;;6.07;;
19207;SDS011;9737;59.466;18.036;2023-03-20T01:28:14;16.00;;;5.82;;
19207;SDS011;9737;59.466;18.036;2023-03-20T01:30:43;14.70;;;6.05;;
19207;SDS011;9737;59.466;18.036;2023-03-20T01:33:13;13.90;;;6.43;;
19207;SDS011;9737;59.466;18.036;2023-03-20T01:35:42;12.00;;;5.72;;
19207;SDS011;9737;59.466;18.036;2023-03-20T01:38:12;15.00;;;6.35;;
19207;SDS011;9737;59.466;18.036;2023-03-20T01:40:47;15.60;;;6.40;;
19207;SDS011;9737;59.466;18.036;2023-03-20T01:43:21;15.60;;;6.50;;
19207;SDS011;9737;59.466;18.036;2023-03-20T01:45:53;14.65;;;6.45;;
19207;SDS011;9737;59.466;18.036;2023-03-20T01:48:29;13.38;;;6.85;;
19207;SDS011;9737;59.466;18.036;2023-03-20T01:51:03;14.13;;;6.32;;
19207;SDS011;9737;59.466;18.036;2023-03-20T01:53:31;16.58;;;6.72;;
19207;SDS011;9737;59.466;18.036;2023-03-20T01:55:59;14.52;;;7.03;;
19207;SDS011;9737;59.466;18.036;2023-03-20T01:58:30;13.40;;;6.35;;
19207;SDS011;9737;59.466;18.036;2023-03-20T02:01:02;12.13;;;5.85;;
19207;SDS011;9737;59.466;18.036;2023-03-20T02:03:32;15.27;;;6.57;;
19207;SDS011;9737;59.466;18.036;2023-03-20T02:06:00;13.18;;;6.40;;
19207;SDS011;9737;59.466;18.036;2023-03-20T02:08:28;15.88;;;6.20;;
19207;SDS011;9737;59.466;18.036;2023-03-20T02:10:58;13.65;;;5.85;;
19207;SDS011;9737;59.466;18.036;2023-03-20T02:13:30;16.02;;;6.93;;
19207;SDS011;9737;59.466;18.036;2023-03-20T02:16:01;14.10;;;6.85;;
19207;SDS011;9737;59.466;18.036;2023-03-20T02:18:32;16.50;;;6.43;;
19207;SDS011;9737;59.466;18.036;2023-03-20T02:21:14;10.88;;;5.97;;
19207;SDS011;9737;59.466;18.036;2023-03-20T02:24:08;13.13;;;6.35;;
19207;SDS011;9737;59.466;18.036;2023-03-20T02:27:00;14.88;;;6.43;;
19207;SDS011;9737;59.466;18.036;2023-03-20T02:35:49;16.75;;;6.32;;
19207;SDS011;9737;59.466;18.036;2023-03-20T02:38:33;15.32;;;6.88;;
19207;SDS011;9737;59.466;18.036;2023-03-20T02:41:11;13.27;;;6.60;;
19207;SDS011;9737;59.466;18.036;2023-03-20T02:43:50;17.13;;;6.03;;
19207;SDS011;9737;59.466;18.036;2023-03-20T02:46:28;15.02;;;6.63;;
19207;SDS011;9737;59.466;18.036;2023-03-20T02:49:04;14.80;;;6.30;;
19207;SDS011;9737;59.466;18.036;2023-03-20T02:51:42;13.82;;;6.60;;
19207;SDS011;9737;59.466;18.036;2023-03-20T02:54:20;16.48;;;7.13;;
19207;SDS011;9737;59.466;18.036;2023-03-20T02:56:57;14.60;;;6.55;;
19207;SDS011;9737;59.466;18.036;2023-03-20T02:59:30;15.40;;;6.40;;
19207;SDS011;9737;59.466;18.036;2023-03-20T03:02:04;17.13;;;6.22;;
19207;SDS011;9737;59.466;18.036;2023-03-20T03:04:35;15.95;;;6.88;;
19207;SDS011;9737;59.466;18.036;2023-03-20T03:07:07;15.30;;;7.18;;
19207;SDS011;9737;59.466;18.036;2023-03-20T03:09:39;16.92;;;6.72;;
19207;SDS011;9737;59.466;18.036;2023-03-20T03:12:12;12.85;;;6.20;;
19207;SDS011;9737;59.466;18.036;2023-03-20T03:14:44;10.80;;;6.15;;
19207;SDS011;9737;59.466;18.036;2023-03-20T03:17:15;16.58;;;6.68;;
19207;SDS011;9737;59.466;18.036;2023-03-20T03:19:45;13.55;;;6.35;;
19207;SDS011;9737;59.466;18.036;2023-03-20T03:22:16;13.43;;;6.43;;
19207;SDS011;9737;59.466;18.036;2023-03-20T03:24:47;12.77;;;6.35;;
19207;SDS011;9737;59.466;18.036;2023-03-20T03:27:17;21.98;;;6.55;;
19207;SDS011;9737;59.466;18.036;2023-03-20T03:29:51;14.63;;;6.38;;
19207;SDS011;9737;59.466;18.036;2023-03-20T03:32:24;18.60;;;7.25;;
19207;SDS011;9737;59.466;18.036;2023-03-20T03:34:55;12.70;;;6.63;;
19207;SDS011;9737;59.466;18.036;2023-03-20T03:37:39;11.30;;;6.13;;
19207;SDS011;9737;59.466;18.036;2023-03-20T03:40:16;15.57;;;6.80;;
19207;SDS011;9737;59.466;18.036;2023-03-20T03:42:52;12.35;;;6.80;;
19207;SDS011;9737;59.466;18.036;2023-03-20T03:45:26;21.33;;;7.18;;
19207;SDS011;9737;59.466;18.036;2023-03-20T03:48:00;14.40;;;6.88;;
19207;SDS011;9737;59.466;18.036;2023-03-20T03:50:35;15.77;;;6.80;;
19207;SDS011;9737;59.466;18.036;2023-03-20T03:53:11;13.07;;;7.15;;
19207;SDS011;9737;59.466;18.036;2023-03-20T03:55:43;13.35;;;7.05;;
19207;SDS011;9737;59.466;18.036;2023-03-20T03:58:15;19.48;;;7.38;;
19207;SDS011;9737;59.466;18.036;2023-03-20T04:00:47;15.25;;;7.32;;
19207;SDS011;9737;59.466;18.036;2023-03-20T04:03:18;14.18;;;7.40;;
19207;SDS011;9737;59.466;18.036;2023-03-20T04:05:49;11.82;;;6.75;;
19207;SDS011;9737;59.466;18.036;2023-03-20T04:08:20;11.35;;;6.18;;
19207;SDS011;9737;59.466;18.036;2023-03-20T04:10:50;11.05;;;6.05;;
19207;SDS011;9737;59.466;18.036;2023-03-20T04:13:18;11.20;;;6.25;;
19207;SDS011;9737;59.466;18.036;2023-03-20T04:15:46;11.77;;;5.90;;
19207;SDS011;9737;59.466;18.036;2023-03-20T04:18:14;12.00;;;6.22;;
19207;SDS011;9737;59.466;18.036;2023-03-20T04:20:44;10.20;;;6.18;;
19207;SDS011;9737;59.466;18.036;2023-03-20T04:23:13;13.30;;;6.43;;
19207;SDS011;9737;59.466;18.036;2023-03-20T04:25:41;11.00;;;6.30;;
19207;SDS011;9737;59.466;18.036;2023-03-20T04:28:10;11.82;;;6.47;;
19207;SDS011;9737;59.466;18.036;2023-03-20T04:30:41;10.48;;;5.85;;
19207;SDS011;9737;59.466;18.036;2023-03-20T04:33:13;11.73;;;6.60;;
19207;SDS011;9737;59.466;18.036;2023-03-20T04:35:41;13.15;;;6.55;;
19207;SDS011;9737;59.466;18.036;2023-03-20T04:38:09;12.30;;;6.07;;
19207;SDS011;9737;59.466;18.036;2023-03-20T04:40:37;13.60;;;6.68;;
19207;SDS011;9737;59.466;18.036;2023-03-20T04:43:05;13.20;;;6.70;;
19207;SDS011;9737;59.466;18.036;2023-03-20T04:45:35;12.15;;;6.60;;
19207;SDS011;9737;59.466;18.036;2023-03-20T04:48:03;12.40;;;6.30;;
19207;SDS011;9737;59.466;18.036;2023-03-20T04:50:31;12.85;;;6.75;;
19207;SDS011;9737;59.466;18.036;2023-03-20T04:52:59;13.18;;;7.00;;
19207;SDS011;9737;59.466;18.036;2023-03-20T04:55:27;15.07;;;7.47;;
19207;SDS011;9737;59.466;18.036;2023-03-20T04:57:55;11.52;;;6.50;;
19207;SDS011;9737;59.466;18.036;2023-03-20T05:00:23;10.57;;;6.35;;
19207;SDS011;9737;59.466;18.036;2023-03-20T05:02:52;13.43;;;6.53;;
19207;SDS011;9737;59.466;18.036;2023-03-20T05:05:21;14.85;;;6.68;;
19207;SDS011;9737;59.466;18.036;2023-03-20T05:07:49;10.35;;;6.18;;
19207;SDS011;9737;59.466;18.036;2023-03-20T05:10:17;10.93;;;6.75;;
19207;SDS011;9737;59.466;18.036;2023-03-20T05:12:45;15.77;;;7.15;;
19207;SDS011;9737;59.466;18.036;2023-03-20T05:15:14;17.73;;;8.57;;
19207;SDS011;9737;59.466;18.036;2023-03-20T05:17:41;21.20;;;10.07;;
19207;SDS011;9737;59.466;18.036;2023-03-20T05:20:11;21.52;;;10.57;;
19207;SDS011;9737;59.466;18.036;2023-03-20T05:22:39;16.90;;;9.15;;
19207;SDS011;9737;59.466;18.036;2023-03-20T05:25:07;12.32;;;7.43;;
19207;SDS011;9737;59.466;18.036;2023-03-20T05:27:35;15.73;;;8.10;;
19207;SDS011;9737;59.466;18.036;2023-03-20T05:30:04;18.73;;;9.10;;
19207;SDS011;9737;59.466;18.036;2023-03-20T05:32:32;31.65;;;12.20;;
19207;SDS011;9737;59.466;18.036;2023-03-20T05:35:02;34.30;;;14.02;;
19207;SDS011;9737;59.466;18.036;2023-03-20T05:37:31;23.63;;;9.85;;
19207;SDS011;9737;59.466;18.036;2023-03-20T05:39:59;24.95;;;9.52;;
19207;SDS011;9737;59.466;18.036;2023-03-20T05:42:28;16.83;;;8.30;;
19207;SDS011;9737;59.466;18.036;2023-03-20T05:44:56;18.20;;;7.97;;
19207;SDS011;9737;59.466;18.036;2023-03-20T05:47:24;19.52;;;8.70;;
19207;SDS011;9737;59.466;18.036;2023-03-20T05:49:52;20.48;;;9.30;;
19207;SDS011;9737;59.466;18.036;2023-03-20T05:52:20;19.10;;;8.35;;
19207;SDS011;9737;59.466;18.036;2023-03-20T05:54:49;15.90;;;8.18;;
19207;SDS011;9737;59.466;18.036;2023-03-20T05:57:17;18.48;;;8.70;;
19207;SDS011;9737;59.466;18.036;2023-03-20T05:59:46;16.23;;;8.18;;
19207;SDS011;9737;59.466;18.036;2023-03-20T06:02:13;22.40;;;9.88;;
19207;SDS011;9737;59.466;18.036;2023-03-20T06:04:42;19.65;;;9.40;;
19207;SDS011;9737;59.466;18.036;2023-03-20T06:07:10;24.05;;;8.77;;
19207;SDS011;9737;59.466;18.036;2023-03-20T06:09:38;20.75;;;8.80;;
19207;SDS011;9737;59.466;18.036;2023-03-20T06:12:07;24.10;;;10.98;;
19207;SDS011;9737;59.466;18.036;2023-03-20T06:14:35;21.08;;;9.45;;
19207;SDS011;9737;59.466;18.036;2023-03-20T06:17:03;24.23;;;9.43;;
19207;SDS011;9737;59.466;18.036;2023-03-20T06:19:31;25.05;;;9.80;;
19207;SDS011;9737;59.466;18.036;2023-03-20T06:21:59;25.42;;;9.93;;
19207;SDS011;9737;59.466;18.036;2023-03-20T06:24:27;25.90;;;9.85;;
19207;SDS011;9737;59.466;18.036;2023-03-20T06:26:54;26.83;;;9.23;;
19207;SDS011;9737;59.466;18.036;2023-03-20T06:29:24;29.60;;;10.15;;
19207;SDS011;9737;59.466;18.036;2023-03-20T06:31:52;29.20;;;9.68;;
19207;SDS011;9737;59.466;18.036;2023-03-20T06:34:19;25.25;;;10.55;;
19207;SDS011;9737;59.466;18.036;2023-03-20T06:36:47;33.88;;;11.02;;
19207;SDS011;9737;59.466;18.036;2023-03-20T06:39:15;27.60;;;10.88;;
19207;SDS011;9737;59.466;18.036;2023-03-20T06:41:43;25.48;;;10.82;;
19207;SDS011;9737;59.466;18.036;2023-03-20T06:44:11;26.83;;;11.32;;
19207;SDS011;9737;59.466;18.036;2023-03-20T06:46:40;28.60;;;11.55;;
19207;SDS011;9737;59.466;18.036;2023-03-20T06:49:08;35.53;;;11.18;;
19207;SDS011;9737;59.466;18.036;2023-03-20T06:51:36;24.42;;;10.50;;
19207;SDS011;9737;59.466;18.036;2023-03-20T06:54:04;36.15;;;11.05;;
19207;SDS011;9737;59.466;18.036;2023-03-20T06:56:32;31.38;;;10.93;;
19207;SDS011;9737;59.466;18.036;2023-03-20T06:59:00;36.50;;;11.68;;
19207;SDS011;9737;59.466;18.036;2023-03-20T07:01:28;27.17;;;10.88;;
19207;SDS011;9737;59.466;18.036;2023-03-20T07:03:57;31.77;;;11.00;;
19207;SDS011;9737;59.466;18.036;2023-03-20T07:06:26;28.83;;;10.88;;
19207;SDS011;9737;59.466;18.036;2023-03-20T07:08:54;30.35;;;11.15;;
19207;SDS011;9737;59.466;18.036;2023-03-20T07:11:22;26.88;;;11.07;;
19207;SDS011;9737;59.466;18.036;2023-03-20T07:13:50;26.88;;;10.93;;
19207;SDS011;9737;59.466;18.036;2023-03-20T07:16:18;27.92;;;10.93;;
19207;SDS011;9737;59.466;18.036;2023-03-20T07:18:46;26.88;;;11.07;;
19207;SDS011;9737;59.466;18.036;2023-03-20T07:21:16;27.00;;;10.57;;
19207;SDS011;9737;59.466;18.036;2023-03-20T07:23:47;27.33;;;11.57;;
19207;SDS011;9737;59.466;18.036;2023-03-20T07:26:15;26.00;;;11.38;;
19207;SDS011;9737;59.466;18.036;2023-03-20T07:28:43;27.77;;;11.90;;
19207;SDS011;9737;59.466;18.036;2023-03-20T07:31:13;28.30;;;11.35;;
19207;SDS011;9737;59.466;18.036;2023-03-20T07:33:45;27.17;;;10.95;;
19207;SDS011;9737;59.466;18.036;2023-03-20T07:36:13;28.27;;;11.40;;
19207;SDS011;9737;59.466;18.036;2023-03-20T07:38:43;29.20;;;11.68;;
19207;SDS011;9737;59.466;18.036;2023-03-20T07:41:11;27.80;;;10.80;;
19207;SDS011;9737;59.466;18.036;2023-03-20T07:43:38;27.65;;;11.65;;
19207;SDS011;9737;59.466;18.036;2023-03-20T07:46:09;24.48;;;10.82;;
19207;SDS011;9737;59.466;18.036;2023-03-20T07:48:37;29.98;;;11.50;;
19207;SDS011;9737;59.466;18.036;2023-03-20T07:51:05;26.40;;;11.10;;
19207;SDS011;9737;59.466;18.036;2023-03-20T07:53:33;26.85;;;11.57;;
19207;SDS011;9737;59.466;18.036;2023-03-20T07:56:04;29.83;;;12.23;;
19207;SDS011;9737;59.466;18.036;2023-03-20T07:58:32;28.17;;;11.40;;
19207;SDS011;9737;59.466;18.036;2023-03-20T08:01:00;28.52;;;11.38;;
19207;SDS011;9737;59.466;18.036;2023-03-20T08:03:28;29.90;;;12.45;;
19207;SDS011;9737;59.466;18.036;2023-03-20T08:05:57;28.48;;;11.93;;
19207;SDS011;9737;59.466;18.036;2023-03-20T08:08:25;31.77;;;12.23;;
19207;SDS011;9737;59.466;18.036;2023-03-20T08:10:53;28.25;;;12.05;;
19207;SDS011;9737;59.466;18.036;2023-03-20T08:13:23;28.40;;;12.32;;
19207;SDS011;9737;59.466;18.036;2023-03-20T08:15:51;34.65;;;12.82;;
19207;SDS011;9737;59.466;18.036;2023-03-20T08:18:18;30.13;;;12.90;;
19207;SDS011;9737;59.466;18.036;2023-03-20T08:20:47;28.98;;;12.90;;
19207;SDS011;9737;59.466;18.036;2023-03-20T08:23:16;34.22;;;12.52;;
19207;SDS011;9737;59.466;18.036;2023-03-20T08:25:46;30.52;;;12.85;;
19207;SDS011;9737;59.466;18.036;2023-03-20T08:28:15;35.08;;;12.13;;
19207;SDS011;9737;59.466;18.036;2023-03-20T08:30:44;31.15;;;12.63;;
19207;SDS011;9737;59.466;18.036;2023-03-20T08:33:13;29.10;;;12.90;;
19207;SDS011;9737;59.466;18.036;2023-03-20T08:35:42;30.55;;;12.98;;
19207;SDS011;9737;59.466;18.036;2023-03-20T08:38:11;32.95;;;13.48;;
19207;SDS011;9737;59.466;18.036;2023-03-20T08:40:39;31.67;;;12.38;;
19207;SDS011;9737;59.466;18.036;2023-03-20T08:43:08;30.45;;;12.10;;
19207;SDS011;9737;59.466;18.036;2023-03-20T08:45:36;27.50;;;12.27;;
19207;SDS011;9737;59.466;18.036;2023-03-20T08:48:05;24.42;;;12.23;;
19207;SDS011;9737;59.466;18.036;2023-03-20T08:50:33;26.10;;;12.60;;
19207;SDS011;9737;59.466;18.036;2023-03-20T08:53:02;30.30;;;12.63;;
19207;SDS011;9737;59.466;18.036;2023-03-20T08:55:30;26.60;;;12.05;;
19207;SDS011;9737;59.466;18.036;2023-03-20T08:57:58;28.00;;;12.52;;
19207;SDS011;9737;59.466;18.036;2023-03-20T09:00:26;32.00;;;13.63;;
19207;SDS011;9737;59.466;18.036;2023-03-20T09:02:54;32.58;;;13.55;;
19207;SDS011;9737;59.466;18.036;2023-03-20T09:05:23;27.65;;;12.90;;
19207;SDS011;9737;59.466;18.036;2023-03-20T09:07:51;30.23;;;12.80;;
19207;SDS011;9737;59.466;18.036;2023-03-20T09:10:20;30.38;;;13.18;;
19207;SDS011;9737;59.466;18.036;2023-03-20T09:12:48;24.40;;;12.32;;
19207;SDS011;9737;59.466;18.036;2023-03-20T09:15:16;25.90;;;12.45;;
19207;SDS011;9737;59.466;18.036;2023-03-20T09:17:44;28.13;;;13.10;;
19207;SDS011;9737;59.466;18.036;2023-03-20T09:20:12;23.90;;;11.98;;
19207;SDS011;9737;59.466;18.036;2023-03-20T09:22:41;26.50;;;11.68;;
19207;SDS011;9737;59.466;18.036;2023-03-20T09:25:10;26.45;;;11.70;;
19207;SDS011;9737;59.466;18.036;2023-03-20T09:27:39;25.60;;;11.70;;
19207;SDS011;9737;59.466;18.036;2023-03-20T09:30:08;27.45;;;12.73;;
19207;SDS011;9737;59.466;18.036;2023-03-20T09:32:37;26.25;;;12.18;;
19207;SDS011;9737;59.466;18.036;2023-03-20T09:35:05;26.83;;;12.32;;
19207;SDS011;9737;59.466;18.036;2023-03-20T09:37:33;25.05;;;11.25;;
19207;SDS011;9737;59.466;18.036;2023-03-20T09:40:03;26.75;;;12.55;;
19207;SDS011;9737;59.466;18.036;2023-03-20T09:42:35;26.23;;;12.50;;
19207;SDS011;9737;59.466;18.036;2023-03-20T09:45:13;29.30;;;12.80;;
19207;SDS011;9737;59.466;18.036;2023-03-20T09:47:50;27.67;;;12.50;;
19207;SDS011;9737;59.466;18.036;2023-03-20T09:50:27;26.02;;;11.90;;
19207;SDS011;9737;59.466;18.036;2023-03-20T09:53:01;27.17;;;11.88;;
19207;SDS011;9737;59.466;18.036;2023-03-20T09:55:36;26.80;;;12.10;;
19207;SDS011;9737;59.466;18.036;2023-03-20T09:58:09;23.85;;;11.50;;
19207;SDS011;9737;59.466;18.036;2023-03-20T10:00:42;25.98;;;12.35;;
19207;SDS011;9737;59.466;18.036;2023-03-20T10:03:16;25.92;;;12.55;;
19207;SDS011;9737;59.466;18.036;2023-03-20T10:05:49;25.38;;;11.98;;
19207;SDS011;9737;59.466;18.036;2023-03-20T10:08:21;26.83;;;12.65;;
19207;SDS011;9737;59.466;18.036;2023-03-20T10:10:58;27.65;;;12.82;;
19207;SDS011;9737;59.466;18.036;2023-03-20T10:13:41;28.83;;;13.15;;
19207;SDS011;9737;59.466;18.036;2023-03-20T10:16:36;28.02;;;12.52;;
19207;SDS011;9737;59.466;18.036;2023-03-20T10:19:15;25.75;;;12.27;;
19207;SDS011;9737;59.466;18.036;2023-03-20T10:21:49;26.23;;;12.27;;
19207;SDS011;9737;59.466;18.036;2023-03-20T10:24:25;29.67;;;12.48;;
19207;SDS011;9737;59.466;18.036;2023-03-20T10:26:59;30.30;;;13.00;;
19207;SDS011;9737;59.466;18.036;2023-03-20T10:29:37;26.55;;;12.70;;
19207;SDS011;9737;59.466;18.036;2023-03-20T10:32:15;31.73;;;13.13;;
19207;SDS011;9737;59.466;18.036;2023-03-20T10:34:52;28.13;;;12.07;;
19207;SDS011;9737;59.466;18.036;2023-03-20T10:37:34;28.48;;;13.23;;
19207;SDS011;9737;59.466;18.036;2023-03-20T10:40:19;28.15;;;12.98;;
19207;SDS011;9737;59.466;18.036;2023-03-20T10:42:54;31.70;;;13.18;;
19207;SDS011;9737;59.466;18.036;2023-03-20T10:45:28;30.58;;;13.30;;
19207;SDS011;9737;59.466;18.036;2023-03-20T10:48:01;29.42;;;13.20;;
19207;SDS011;9737;59.466;18.036;2023-03-20T10:50:34;29.10;;;13.13;;
19207;SDS011;9737;59.466;18.036;2023-03-20T10:53:06;29.42;;;13.23;;
19207;SDS011;9737;59.466;18.036;2023-03-20T10:55:36;30.08;;;13.88;;
19207;SDS011;9737;59.466;18.036;2023-03-20T10:58:10;31.52;;;13.40;;
19207;SDS011;9737;59.466;18.036;2023-03-20T11:00:44;30.33;;;12.80;;
19207;SDS011;9737;59.466;18.036;2023-03-20T11:03:16;30.63;;;14.25;;
19207;SDS011;9737;59.466;18.036;2023-03-20T11:05:50;31.92;;;13.50;;
19207;SDS011;9737;59.466;18.036;2023-03-20T11:08:35;37.17;;;14.52;;
19207;SDS011;9737;59.466;18.036;2023-03-20T11:11:06;37.17;;;14.57;;
19207;SDS011;9737;59.466;18.036;2023-03-20T11:13:36;35.13;;;14.48;;
19207;SDS011;9737;59.466;18.036;2023-03-20T11:16:17;36.60;;;14.55;;
19207;SDS011;9737;59.466;18.036;2023-03-20T11:18:49;33.28;;;13.50;;
19207;SDS011;9737;59.466;18.036;2023-03-20T11:21:19;31.67;;;14.23;;
19207;SDS011;9737;59.466;18.036;2023-03-20T11:23:49;35.22;;;14.23;;
19207;SDS011;9737;59.466;18.036;2023-03-20T11:26:18;30.88;;;13.30;;
19207;SDS011;9737;59.466;18.036;2023-03-20T11:28:55;34.50;;;14.52;;
19207;SDS011;9737;59.466;18.036;2023-03-20T11:31:28;31.60;;;13.73;;
19207;SDS011;9737;59.466;18.036;2023-03-20T11:34:08;33.55;;;14.93;;
19207;SDS011;9737;59.466;18.036;2023-03-20T11:36:37;30.30;;;14.40;;
19207;SDS011;9737;59.466;18.036;2023-03-20T11:39:09;29.20;;;13.82;;
19207;SDS011;9737;59.466;18.036;2023-03-20T11:41:41;31.98;;;13.65;;
19207;SDS011;9737;59.466;18.036;2023-03-20T11:44:22;27.90;;;13.70;;
19207;SDS011;9737;59.466;18.036;2023-03-20T11:46:58;32.17;;;13.52;;
19207;SDS011;9737;59.466;18.036;2023-03-20T11:49:29;26.88;;;12.63;;
19207;SDS011;9737;59.466;18.036;2023-03-20T11:51:59;28.20;;;13.65;;
19207;SDS011;9737;59.466;18.036;2023-03-20T11:54:29;29.90;;;13.40;;
19207;SDS011;9737;59.466;18.036;2023-03-20T11:56:57;26.50;;;12.68;;
19207;SDS011;9737;59.466;18.036;2023-03-20T11:59:30;28.00;;;13.13;;
19207;SDS011;9737;59.466;18.036;2023-03-20T12:02:00;24.42;;;12.07;;
19207;SDS011;9737;59.466;18.036;2023-03-20T12:04:31;24.73;;;12.48;;
19207;SDS011;9737;59.466;18.036;2023-03-20T12:07:03;24.63;;;12.57;;
19207;SDS011;9737;59.466;18.036;2023-03-20T12:09:39;21.33;;;11.43;;
19207;SDS011;9737;59.466;18.036;2023-03-20T12:12:11;22.30;;;11.32;;
19207;SDS011;9737;59.466;18.036;2023-03-20T12:14:49;24.60;;;12.57;;
19207;SDS011;9737;59.466;18.036;2023-03-20T12:17:25;23.98;;;12.55;;
19207;SDS011;9737;59.466;18.036;2023-03-20T12:20:00;23.23;;;11.95;;
19207;SDS011;9737;59.466;18.036;2023-03-20T12:22:34;25.10;;;12.75;;
19207;SDS011;9737;59.466;18.036;2023-03-20T12:25:06;25.58;;;12.75;;
19207;SDS011;9737;59.466;18.036;2023-03-20T12:27:46;24.70;;;13.07;;
19207;SDS011;9737;59.466;18.036;2023-03-20T12:30:25;27.00;;;13.60;;
19207;SDS011;9737;59.466;18.036;2023-03-20T12:32:59;28.55;;;13.68;;
19207;SDS011;9737;59.466;18.036;2023-03-20T12:35:31;31.50;;;14.25;;
19207;SDS011;9737;59.466;18.036;2023-03-20T12:38:03;29.45;;;13.85;;
19207;SDS011;9737;59.466;18.036;2023-03-20T12:40:40;31.75;;;14.68;;
19207;SDS011;9737;59.466;18.036;2023-03-20T12:43:11;29.02;;;13.55;;
19207;SDS011;9737;59.466;18.036;2023-03-20T12:45:45;30.88;;;14.80;;
19207;SDS011;9737;59.466;18.036;2023-03-20T12:48:23;29.70;;;13.82;;
19207;SDS011;9737;59.466;18.036;2023-03-20T12:51:06;27.42;;;13.07;;
19207;SDS011;9737;59.466;18.036;2023-03-20T12:53:45;24.80;;;12.75;;
19207;SDS011;9737;59.466;18.036;2023-03-20T12:56:34;31.85;;;12.90;;
19207;SDS011;9737;59.466;18.036;2023-03-20T12:59:18;25.27;;;12.43;;
19207;SDS011;9737;59.466;18.036;2023-03-20T13:01:55;22.83;;;11.13;;
19207;SDS011;9737;59.466;18.036;2023-03-20T13:04:48;20.58;;;9.88;;
19207;SDS011;9737;59.466;18.036;2023-03-20T13:07:36;18.00;;;8.88;;
19207;SDS011;9737;59.466;18.036;2023-03-20T13:10:18;12.98;;;7.60;;
19207;SDS011;9737;59.466;18.036;2023-03-20T13:12:53;11.13;;;6.50;;
19207;SDS011;9737;59.466;18.036;2023-03-20T13:15:34;11.55;;;6.43;;
19207;SDS011;9737;59.466;18.036;2023-03-20T13:18:16;11.15;;;5.78;;
19207;SDS011;9737;59.466;18.036;2023-03-20T13:20:49;8.82;;;5.28;;
19207;SDS011;9737;59.466;18.036;2023-03-20T13:23:20;7.40;;;5.07;;
19207;SDS011;9737;59.466;18.036;2023-03-20T13:26:03;7.13;;;4.55;;
19207;SDS011;9737;59.466;18.036;2023-03-20T13:28:44;8.55;;;4.55;;
19207;SDS011;9737;59.466;18.036;2023-03-20T13:34:18;4.07;;;2.60;;
19207;SDS011;9737;59.466;18.036;2023-03-20T13:36:58;2.00;;;1.80;;
19207;SDS011;9737;59.466;18.036;2023-03-20T13:39:52;1.60;;;1.50;;
19207;SDS011;9737;59.466;18.036;2023-03-20T13:42:28;1.58;;;1.45;;
19207;SDS011;9737;59.466;18.036;2023-03-20T13:45:03;1.38;;;1.27;;
19207;SDS011;9737;59.466;18.036;2023-03-20T13:47:34;1.27;;;1.02;;
19207;SDS011;9737;59.466;18.036;2023-03-20T13:50:17;1.35;;;1.25;;
19207;SDS011;9737;59.466;18.036;2023-03-20T13:52:53;1.00;;;1.00;;
19207;SDS011;9737;59.466;18.036;2023-03-20T13:55:28;1.40;;;1.30;;
19207;SDS011;9737;59.466;18.036;2023-03-20T13:58:12;1.17;;;1.17;;
19207;SDS011;9737;59.466;18.036;2023-03-20T14:00:50;1.30;;;1.20;;
19207;SDS011;9737;59.466;18.036;2023-03-20T14:03:23;1.90;;;1.13;;
19207;SDS011;9737;59.466;18.036;2023-03-20T14:05:55;1.08;;;1.08;;
19207;SDS011;9737;59.466;18.036;2023-03-20T14:08:28;1.30;;;1.20;;
19207;SDS011;9737;59.466;18.036;2023-03-20T14:11:13;1.30;;;1.20;;
19207;SDS011;9737;59.466;18.036;2023-03-20T14:13:58;1.10;;;1.10;;
19207;SDS011;9737;59.466;18.036;2023-03-20T14:16:32;1.20;;;1.20;;
19207;SDS011;9737;59.466;18.036;2023-03-20T14:19:05;1.30;;;1.20;;
19207;SDS011;9737;59.466;18.036;2023-03-20T14:21:38;3.58;;;1.30;;
19207;SDS011;9737;59.466;18.036;2023-03-20T14:24:12;1.40;;;1.30;;
19207;SDS011;9737;59.466;18.036;2023-03-20T14:26:46;1.40;;;1.30;;
19207;SDS011;9737;59.466;18.036;2023-03-20T14:29:21;1.80;;;1.25;;
19207;SDS011;9737;59.466;18.036;2023-03-20T14:32:03;1.30;;;1.20;;
19207;SDS011;9737;59.466;18.036;2023-03-20T14:34:49;1.10;;;1.10;;
19207;SDS011;9737;59.466;18.036;2023-03-20T14:37:27;3.25;;;1.20;;
19207;SDS011;9737;59.466;18.036;2023-03-20T14:39:58;1.10;;;1.10;;
19207;SDS011;9737;59.466;18.036;2023-03-20T14:42:38;1.40;;;1.30;;
19207;SDS011;9737;59.466;18.036;2023-03-20T14:48:15;1.10;;;1.10;;
19207;SDS011;9737;59.466;18.036;2023-03-20T14:50:53;1.45;;;1.10;;
19207;SDS011;9737;59.466;18.036;2023-03-20T14:53:33;1.10;;;1.10;;
19207;SDS011;9737;59.466;18.036;2023-03-20T14:56:06;1.25;;;1.17;;
19207;SDS011;9737;59.466;18.036;2023-03-20T14:58:51;1.15;;;1.15;;
19207;SDS011;9737;59.466;18.036;2023-03-20T15:04:21;1.23;;;1.15;;
19207;SDS011;9737;59.466;18.036;2023-03-20T15:06:55;1.80;;;1.17;;
19207;SDS011;9737;59.466;18.036;2023-03-20T15:09:28;1.27;;;1.10;;
19207;SDS011;9737;59.466;18.036;2023-03-20T15:11:59;1.10;;;1.10;;
19207;SDS011;9737;59.466;18.036;2023-03-20T15:14:31;1.10;;;1.10;;